Time;durP1;ratioP1;P1;durP2;ratioP2;P2;SDS_P1;SDS_P2;PMS_P1;PMS_P2;Temp;Humidity;BMP_temperature;BMP_pressure;BME280_temperature;BME280_humidity;BME280_pressure;Samples;Min_cycle;Max_cycle;Signal;HPM_P1;HPM_P2
2022/09/21 00:00:40;;;;;;;4.50;2.33;;;;;;;23.80;45.85;98220.69;5066053;28;20196;-31
2022/09/21 00:03:06;;;;;;;3.23;2.80;;;;;;;23.80;45.83;98221.53;5054227;28;20219;-31
2022/09/21 00:05:33;;;;;;;2.77;2.50;;;;;;;23.74;45.84;98207.66;5056472;28;20208;-31
2022/09/21 00:08:00;;;;;;;3.20;2.57;;;;;;;23.74;45.83;98205.09;5069514;28;20208;-31
2022/09/21 00:10:27;;;;;;;3.03;2.40;;;;;;;23.79;45.52;98206.97;5067131;28;20208;-31
2022/09/21 00:12:54;;;;;;;3.10;2.40;;;;;;;23.76;45.74;98201.75;5062597;28;20603;-30
2022/09/21 00:15:21;;;;;;;4.10;2.80;;;;;;;23.78;45.78;98212.94;5042237;28;20200;-31
2022/09/21 00:17:52;;;;;;;2.53;2.23;;;;;;;23.78;45.54;98212.94;5071286;28;20203;-31
2022/09/21 00:20:19;;;;;;;3.37;2.57;;;;;;;23.78;45.35;98210.38;5043300;28;20694;-31
2022/09/21 00:22:46;;;;;;;2.87;2.30;;;;;;;23.69;45.29;98201.50;5059579;28;20221;-31
2022/09/21 00:25:13;;;;;;;2.00;1.90;;;;;;;23.78;45.11;98209.50;5059904;28;20196;-31
2022/09/21 00:27:40;;;;;;;2.40;2.20;;;;;;;23.77;44.75;98213.75;5065663;28;20283;-31
2022/09/21 00:30:06;;;;;;;3.60;1.83;;;;;;;23.77;44.89;98205.19;5063893;28;20197;-31
2022/09/21 00:32:35;;;;;;;2.77;2.33;;;;;;;23.77;44.82;98206.03;5066987;28;20227;-31
2022/09/21 00:35:01;;;;;;;2.00;1.90;;;;;;;23.77;44.55;98213.75;5061752;28;20256;-31
2022/09/21 00:37:28;;;;;;;2.37;2.17;;;;;;;23.73;44.79;98206.78;5064766;28;20201;-31
2022/09/21 00:39:55;;;;;;;7.30;2.23;;;;;;;23.76;44.70;98213.69;5066331;28;20192;-31
2022/09/21 00:42:23;;;;;;;2.40;2.20;;;;;;;23.75;44.80;98212.84;5066202;28;20201;-31
2022/09/21 00:44:49;;;;;;;3.80;2.40;;;;;;;23.75;44.82;98211.97;5060860;28;20205;-31
2022/09/21 00:47:33;;;;;;;5.20;2.07;;;;;;;23.76;44.64;98211.13;5048814;28;20208;-31
2022/09/21 00:50:03;;;;;;;3.40;2.33;;;;;;;23.64;44.28;98197.91;5047192;28;20216;-31
2022/09/21 00:52:31;;;;;;;2.70;2.27;;;;;;;23.75;44.28;98222.22;5038793;28;20220;-31
2022/09/21 00:55:03;;;;;;;2.53;2.07;;;;;;;23.75;44.00;98219.66;5056536;28;20215;-31
2022/09/21 00:57:30;;;;;;;2.57;2.37;;;;;;;23.69;43.89;98217.78;5071736;28;20208;-31
2022/09/21 00:59:58;;;;;;;2.10;2.00;;;;;;;23.67;43.57;98208.28;5036308;28;21056;-31
2022/09/21 01:02:25;;;;;;;2.40;2.20;;;;;;;23.18;43.72;98134.84;5066779;28;20204;-31
2022/09/21 01:04:54;;;;;;;2.97;1.97;;;;;;;23.71;43.51;98231.53;5069490;28;20629;-31
2022/09/21 01:07:23;;;;;;;3.17;2.10;;;;;;;23.71;43.59;98228.94;5064345;28;20571;-31
2022/09/21 01:09:52;;;;;;;4.23;2.00;;;;;;;23.71;43.62;98228.09;5040865;28;20223;-31
2022/09/21 01:12:50;;;;;;;3.10;2.23;;;;;;;23.70;43.89;98228.91;5037961;28;20234;-31
2022/09/21 01:15:49;;;;;;;2.67;1.90;;;;;;;23.70;43.58;98232.34;5000302;28;20216;-31
2022/09/21 01:18:19;;;;;;;2.47;2.10;;;;;;;23.71;43.62;98230.66;5044473;28;20200;-31
2022/09/21 01:21:06;;;;;;;3.37;2.20;;;;;;;23.70;43.81;98223.78;5063085;28;20196;-31
2022/09/21 01:23:41;;;;;;;3.70;2.20;;;;;;;23.69;44.08;98220.34;5057634;28;20602;-31
2022/09/21 01:26:40;;;;;;;2.00;1.83;;;;;;;23.70;43.70;98218.63;5039248;28;20207;-31
2022/09/21 01:29:19;;;;;;;4.73;2.37;;;;;;;23.70;43.95;98221.22;5043661;28;20193;-31
2022/09/21 01:31:45;;;;;;;2.83;2.37;;;;;;;23.68;43.84;98218.59;5059012;28;20592;-31
2022/09/21 01:34:41;;;;;;;2.37;2.10;;;;;;;23.69;43.74;98227.16;5069981;28;20238;-31
2022/09/21 01:37:11;;;;;;;4.33;2.20;;;;;;;23.63;43.54;98209.00;5047202;28;20211;-31
2022/09/21 01:39:38;;;;;;;3.53;2.23;;;;;;;23.68;43.69;98223.72;5038464;28;20196;-31
2022/09/21 01:42:05;;;;;;;2.10;1.90;;;;;;;23.68;43.67;98223.72;5038631;28;20201;-31
2022/09/21 01:44:32;;;;;;;2.63;2.20;;;;;;;23.68;43.35;98222.88;5041771;28;20225;-31
2022/09/21 01:47:02;;;;;;;2.30;2.10;;;;;;;23.68;43.47;98223.72;5035102;28;20219;-31
2022/09/21 01:49:33;;;;;;;1.87;1.70;;;;;;;23.61;43.20;98214.09;5040216;28;20292;-31
2022/09/21 01:52:04;;;;;;;2.60;2.40;;;;;;;23.48;43.26;98191.44;5038936;28;20898;-31
2022/09/21 01:54:38;;;;;;;3.47;1.73;;;;;;;23.67;43.37;98229.69;5047094;28;20217;-31
2022/09/21 01:57:22;;;;;;;2.40;2.20;;;;;;;23.60;42.96;98217.50;5034402;28;20214;-31
2022/09/21 01:59:53;;;;;;;2.67;2.40;;;;;;;23.59;42.94;98213.16;5045933;28;20255;-31
2022/09/21 02:02:24;;;;;;;2.40;2.10;;;;;;;23.66;42.90;98227.97;5046721;28;20204;-31
2022/09/21 02:04:50;;;;;;;2.73;2.00;;;;;;;23.67;42.78;98226.25;5061474;28;20211;-31
2022/09/21 02:07:17;;;;;;;2.20;2.00;;;;;;;23.66;42.86;98230.53;5042272;28;20196;-31
2022/09/21 02:09:45;;;;;;;5.57;1.93;;;;;;;23.59;42.79;98210.59;5060176;28;20200;-31
2022/09/21 02:12:15;;;;;;;2.27;1.90;;;;;;;23.40;42.88;98182.63;5044668;28;20209;-31
2022/09/21 02:14:44;;;;;;;2.83;2.10;;;;;;;23.55;42.76;98201.06;5065273;28;20220;-31
2022/09/21 02:17:30;;;;;;;4.30;2.43;;;;;;;23.65;42.65;98221.06;5045374;28;20212;-31
2022/09/21 02:20:01;;;;;;;2.30;2.03;;;;;;;23.66;42.75;98225.38;5059866;28;20200;-31
2022/09/21 02:22:40;;;;;;;3.60;2.30;;;;;;;23.65;42.88;98221.06;5056488;28;20203;-31
2022/09/21 02:25:14;;;;;;;2.80;2.30;;;;;;;23.48;42.66;98191.44;5056901;28;20200;-31
2022/09/21 02:27:55;;;;;;;3.00;2.60;;;;;;;23.63;42.73;98227.84;5074192;28;20203;-31
2022/09/21 02:30:23;;;;;;;4.27;2.30;;;;;;;23.58;42.50;98218.25;5038952;28;20201;-31
2022/09/21 02:33:10;;;;;;;2.83;2.20;;;;;;;23.62;42.37;98227.81;5057385;28;20224;-33
2022/09/21 02:35:44;;;;;;;2.07;1.90;;;;;;;23.61;42.19;98226.94;5069320;28;20197;-31
2022/09/21 02:38:32;;;;;;;4.73;2.20;;;;;;;23.61;42.38;98241.44;5042097;28;20207;-31
2022/09/21 02:41:05;;;;;;;2.23;2.03;;;;;;;23.60;42.05;98232.91;5046234;28;20207;-31
2022/09/21 02:43:40;;;;;;;2.27;1.97;;;;;;;23.52;41.92;98228.31;5045836;28;20594;-31
2022/09/21 02:46:10;;;;;;;2.47;1.90;;;;;;;23.56;41.74;98241.28;5045919;28;20659;-31
2022/09/21 02:48:42;;;;;;;2.30;2.10;;;;;;;23.58;41.86;98238.78;5032065;28;20232;-31
2022/09/21 02:51:10;;;;;;;2.17;1.90;;;;;;;23.60;41.74;98238.03;5049144;28;20576;-31
2022/09/21 02:53:37;;;;;;;2.53;2.00;;;;;;;23.60;41.66;98232.91;5040602;28;20228;-31
2022/09/21 02:56:06;;;;;;;2.30;2.10;;;;;;;23.53;41.89;98225.78;5038852;28;20663;-31
2022/09/21 02:58:34;;;;;;;2.10;1.90;;;;;;;23.61;41.89;98236.31;5038961;28;20255;-31
2022/09/21 03:01:01;;;;;;;2.50;2.30;;;;;;;23.60;41.84;98235.47;5049398;28;20208;-31
2022/09/21 03:03:28;;;;;;;2.20;2.00;;;;;;;23.61;41.78;98233.75;5040625;28;20262;-31
2022/09/21 03:05:55;;;;;;;2.10;1.93;;;;;;;23.58;41.89;98236.22;5072214;28;20200;-31
2022/09/21 03:08:21;;;;;;;2.60;2.30;;;;;;;23.57;42.10;98230.22;5061338;28;20204;-31
2022/09/21 03:10:49;;;;;;;5.60;2.60;;;;;;;23.60;42.32;98226.88;5064611;28;20611;-31
2022/09/21 03:13:17;;;;;;;3.13;2.70;;;;;;;23.55;42.09;98220.72;5061804;28;20232;-31
2022/09/21 03:15:44;;;;;;;2.80;2.60;;;;;;;23.57;42.35;98227.66;5060919;28;20192;-31
2022/09/21 03:18:11;;;;;;;3.60;2.87;;;;;;;23.59;42.45;98226.00;5070095;28;20228;-31
2022/09/21 03:20:38;;;;;;;3.10;2.80;;;;;;;23.60;42.54;98229.44;5058639;28;20201;-31
2022/09/21 03:23:05;;;;;;;2.97;2.53;;;;;;;23.55;42.43;98223.28;5069395;28;20731;-31
2022/09/21 03:25:32;;;;;;;4.37;2.70;;;;;;;23.41;42.74;98204.03;5058904;28;20203;-31
2022/09/21 03:27:58;;;;;;;2.90;2.70;;;;;;;23.56;42.41;98228.47;5061188;28;20246;-31
2022/09/21 03:30:25;;;;;;;3.07;2.77;;;;;;;23.59;42.48;98233.69;5069226;28;20204;-31
2022/09/21 03:32:52;;;;;;;2.83;2.53;;;;;;;23.57;42.46;98234.47;5063950;28;20231;-31
2022/09/21 03:35:20;;;;;;;2.90;2.60;;;;;;;23.60;42.48;98242.28;5060422;28;21357;-31
2022/09/21 03:37:47;;;;;;;4.30;2.70;;;;;;;23.61;42.80;98241.44;5065153;28;20219;-31
2022/09/21 03:40:14;;;;;;;2.70;2.50;;;;;;;23.57;42.59;98240.50;5057067;28;20197;-31
2022/09/21 03:42:40;;;;;;;2.93;2.40;;;;;;;23.58;42.79;98242.22;5064349;28;20220;-31
2022/09/21 03:45:08;;;;;;;2.80;2.50;;;;;;;23.58;42.48;98239.66;5063439;28;20295;-31
2022/09/21 03:47:35;;;;;;;2.63;2.43;;;;;;;23.38;42.42;98218.47;5063153;28;20196;-31
2022/09/21 03:50:02;;;;;;;2.70;2.33;;;;;;;23.57;42.31;98248.19;5044217;28;20217;-31
2022/09/21 03:52:36;;;;;;;2.90;2.60;;;;;;;23.57;42.40;98245.63;5071851;28;20230;-31
2022/09/21 03:55:05;;;;;;;2.30;2.10;;;;;;;23.57;42.49;98255.88;5063106;28;20213;-31
2022/09/21 03:57:33;;;;;;;2.50;2.30;;;;;;;23.57;42.37;98253.31;5067315;28;20219;-31
2022/09/21 04:00:02;;;;;;;2.63;2.30;;;;;;;23.55;42.28;98246.38;5061163;28;20327;-31
2022/09/21 04:02:28;;;;;;;3.73;2.50;;;;;;;23.57;42.44;98258.47;5064456;28;20204;-31
2022/09/21 04:04:55;;;;;;;2.47;2.27;;;;;;;23.57;42.65;98253.31;5055014;28;20203;-31
2022/09/21 04:07:22;;;;;;;2.30;2.10;;;;;;;23.57;42.35;98257.56;5067385;28;20723;-31
2022/09/21 04:09:48;;;;;;;2.40;2.20;;;;;;;23.58;42.39;98254.16;5065568;28;20200;-31
2022/09/21 04:12:15;;;;;;;2.60;2.40;;;;;;;23.56;42.46;98251.56;5071299;28;20650;-31
2022/09/21 04:14:41;;;;;;;2.70;2.30;;;;;;;23.57;42.50;98255.88;5060550;28;20204;-31
2022/09/21 04:17:08;;;;;;;2.43;2.23;;;;;;;23.56;42.48;98254.13;5070208;28;20200;-31
2022/09/21 04:19:34;;;;;;;2.40;2.20;;;;;;;23.56;42.33;98266.09;5055204;28;20193;-31
2022/09/21 04:22:01;;;;;;;2.50;2.30;;;;;;;23.56;42.26;98259.25;5056712;28;20197;-31
2022/09/21 04:24:27;;;;;;;2.37;2.20;;;;;;;23.56;42.43;98253.28;5067565;28;20585;-31
2022/09/21 04:26:54;;;;;;;2.30;2.10;;;;;;;23.53;42.43;98261.72;5070704;28;20203;-31
2022/09/21 04:29:20;;;;;;;2.30;2.10;;;;;;;23.57;42.54;98265.28;5047853;28;20250;-31
2022/09/21 04:31:47;;;;;;;2.70;2.50;;;;;;;23.56;42.58;98277.22;5064803;28;20197;-31
2022/09/21 04:34:13;;;;;;;2.40;2.20;;;;;;;23.56;42.49;98268.66;5070040;28;20230;-31
2022/09/21 04:36:40;;;;;;;2.43;2.23;;;;;;;23.57;42.10;98278.09;5067853;28;20207;-31
2022/09/21 04:39:06;;;;;;;2.00;1.90;;;;;;;23.56;41.67;98272.09;5066048;28;20391;-31
2022/09/21 04:41:33;;;;;;;2.40;2.20;;;;;;;23.50;41.38;98271.03;5070627;28;20200;-31
2022/09/21 04:44:00;;;;;;;2.30;2.10;;;;;;;23.55;41.78;98270.34;5064363;28;20231;-31
2022/09/21 04:46:27;;;;;;;2.77;2.57;;;;;;;23.56;40.52;98273.81;5064532;28;20212;-31
2022/09/21 04:48:53;;;;;;;2.73;2.50;;;;;;;23.49;39.49;98266.69;5070484;28;20196;-31
2022/09/21 04:51:20;;;;;;;2.80;2.60;;;;;;;23.52;38.77;98277.94;5056355;28;20208;-31
2022/09/21 04:53:46;;;;;;;2.80;2.60;;;;;;;23.49;38.37;98277.84;5055658;28;20814;-31
2022/09/21 04:56:13;;;;;;;2.87;2.67;;;;;;;23.47;38.18;98283.75;5065029;28;20196;-31
2022/09/21 04:58:40;;;;;;;3.57;2.37;;;;;;;23.40;38.06;98285.22;5070789;28;20215;-31
2022/09/21 05:01:06;;;;;;;2.67;2.47;;;;;;;23.39;37.70;98284.34;5061241;28;20211;-31
2022/09/21 05:03:33;;;;;;;2.60;2.40;;;;;;;23.31;37.20;98274.66;5062137;28;20213;-31
2022/09/21 05:06:00;;;;;;;2.43;2.23;;;;;;;23.31;37.26;98295.19;5040589;28;20287;-31
2022/09/21 05:11:14;;;;;;;2.40;2.20;;;;;;;23.24;37.25;98298.38;5055202;28;20532;-31
2022/09/21 05:13:41;;;;;;;2.80;2.60;;;;;;;23.12;37.28;98296.19;5056353;28;20699;-31
2022/09/21 05:16:08;;;;;;;3.00;2.40;;;;;;;23.10;37.60;98299.53;5067409;28;20192;-31
2022/09/21 05:18:34;;;;;;;2.50;2.30;;;;;;;23.06;38.27;98303.66;5064901;28;20630;-31
2022/09/21 05:21:01;;;;;;;2.43;2.27;;;;;;;23.06;38.99;98310.47;5062958;28;20208;-31
2022/09/21 05:23:29;;;;;;;4.20;2.33;;;;;;;23.05;39.58;98313.88;5064851;28;20217;-31
2022/09/21 05:25:57;;;;;;;2.10;1.93;;;;;;;23.02;39.97;98312.06;5068675;28;20204;-31
2022/09/21 05:28:23;;;;;;;2.10;1.90;;;;;;;23.03;40.38;98313.81;5058160;28;20584;-31
2022/09/21 05:30:57;;;;;;;2.30;2.10;;;;;;;23.03;40.79;98324.06;5058117;28;20203;-31
2022/09/21 05:33:52;;;;;;;2.33;2.00;;;;;;;23.03;40.93;98318.06;5059882;28;20255;-31
2022/09/21 05:36:29;;;;;;;2.00;1.77;;;;;;;23.05;41.45;98314.75;5047475;28;20215;-31
2022/09/21 05:38:56;;;;;;;2.17;1.73;;;;;;;23.06;41.74;98320.72;5042336;28;20203;-31
2022/09/21 05:41:22;;;;;;;3.33;1.73;;;;;;;23.07;42.06;98323.34;5067353;28;20213;-31
2022/09/21 05:43:49;;;;;;;2.97;2.00;;;;;;;23.09;42.27;98329.41;5070653;28;20224;-31
2022/09/21 05:46:47;;;;;;;2.20;2.00;;;;;;;23.11;42.84;98334.59;5060978;28;20203;-31
2022/09/21 05:49:44;;;;;;;4.10;1.73;;;;;;;23.13;42.99;98335.53;5036639;28;20237;-31
2022/09/21 05:52:29;;;;;;;1.83;1.70;;;;;;;23.16;43.54;98335.66;5043023;28;20196;-31
2022/09/21 05:55:20;;;;;;;1.93;1.80;;;;;;;23.17;43.71;98330.56;5065165;28;20197;-31
2022/09/21 05:58:09;;;;;;;3.80;1.80;;;;;;;23.20;43.75;98329.78;5040734;28;20212;-31
2022/09/21 06:00:58;;;;;;;6.80;2.20;;;;;;;23.22;44.25;98333.31;5065926;28;20196;-31
2022/09/21 06:03:29;;;;;;;1.60;1.50;;;;;;;23.24;44.14;98334.28;5055897;28;20212;-31
2022/09/21 06:05:56;;;;;;;3.63;1.80;;;;;;;23.16;44.57;98312.56;5065989;28;20212;-31
2022/09/21 06:08:23;;;;;;;3.20;2.13;;;;;;;23.28;44.01;98331.88;5050511;28;20219;-31
2022/09/21 06:10:50;;;;;;;4.33;2.20;;;;;;;23.30;43.99;98331.91;5060588;28;20201;-31
2022/09/21 06:13:16;;;;;;;3.97;2.43;;;;;;;23.23;44.03;98317.97;5043891;28;20232;-31
2022/09/21 06:15:43;;;;;;;2.23;2.03;;;;;;;23.30;44.05;98334.50;5058210;28;20192;-31
2022/09/21 06:18:10;;;;;;;2.90;2.03;;;;;;;23.30;44.15;98331.91;5057140;28;20204;-31
2022/09/21 06:20:43;;;;;;;2.20;2.00;;;;;;;23.34;44.47;98334.66;5058314;28;20346;-31
2022/09/21 06:23:10;;;;;;;3.03;2.03;;;;;;;23.31;44.63;98320.84;5067859;28;20223;-31
2022/09/21 06:25:37;;;;;;;2.00;1.80;;;;;;;23.34;44.63;98328.63;5055103;28;20193;-31
2022/09/21 06:28:04;;;;;;;2.83;2.13;;;;;;;23.38;45.00;98335.59;5056645;28;20648;-31
2022/09/21 06:30:33;;;;;;;1.90;1.80;;;;;;;23.35;45.16;98335.50;5061671;28;20662;-31
2022/09/21 06:33:00;;;;;;;2.20;2.00;;;;;;;23.33;45.18;98326.91;5039773;28;20234;-31
2022/09/21 06:35:30;;;;;;;4.00;2.10;;;;;;;23.36;45.25;98334.69;5064047;28;20220;-31
2022/09/21 06:38:06;;;;;;;2.93;1.90;;;;;;;23.43;45.29;98346.91;5070958;28;20200;-31
2022/09/21 06:40:34;;;;;;;3.13;2.10;;;;;;;23.44;45.36;98356.34;5062081;28;20203;-31
2022/09/21 06:43:01;;;;;;;4.20;1.93;;;;;;;23.46;45.51;98351.25;5068222;28;20224;-31
2022/09/21 06:45:28;;;;;;;2.10;1.90;;;;;;;23.43;45.65;98341.78;5068610;28;20203;-31
2022/09/21 06:47:54;;;;;;;2.30;2.10;;;;;;;23.45;45.70;98344.41;5074085;28;20208;-31
2022/09/21 06:50:21;;;;;;;2.20;2.00;;;;;;;23.41;45.59;98340.00;5067275;28;20552;-31
2022/09/21 06:52:48;;;;;;;2.93;1.90;;;;;;;23.49;45.59;98354.81;5065674;28;20229;-31
2022/09/21 06:55:15;;;;;;;1.90;1.70;;;;;;;23.50;45.91;98355.69;5067851;28;20208;-31
2022/09/21 06:57:42;;;;;;;3.33;1.83;;;;;;;23.51;45.66;98352.31;5069183;28;20208;-31
2022/09/21 07:00:10;;;;;;;3.77;2.10;;;;;;;23.51;44.65;98345.50;5061666;28;20205;-31
2022/09/21 07:02:36;;;;;;;2.80;2.47;;;;;;;23.52;43.38;98348.91;5072333;28;20212;-31
2022/09/21 07:05:03;;;;;;;3.20;2.47;;;;;;;23.51;42.96;98345.50;5069650;28;20192;-31
2022/09/21 07:07:30;;;;;;;6.60;2.33;;;;;;;23.50;43.04;98343.72;5069737;28;20199;-31
2022/09/21 07:09:59;;;;;;;3.63;2.40;;;;;;;23.51;43.43;98347.19;5059856;28;20201;-31
2022/09/21 07:12:40;;;;;;;3.43;2.27;;;;;;;23.48;43.90;98347.94;5057000;28;20254;-31
2022/09/21 07:15:09;;;;;;;4.63;2.30;;;;;;;23.46;44.22;98341.00;5040522;28;20664;-31
2022/09/21 07:17:36;;;;;;;2.20;2.00;;;;;;;23.42;44.31;98340.03;5047453;28;20193;-31
2022/09/21 07:20:04;;;;;;;3.77;2.10;;;;;;;23.51;44.70;98353.19;5067878;28;20192;-31
2022/09/21 07:22:31;;;;;;;5.00;2.20;;;;;;;23.51;45.03;98354.88;5062101;28;20679;-31
2022/09/21 07:24:58;;;;;;;3.53;2.00;;;;;;;23.48;45.00;98355.66;5067176;28;20663;-31
2022/09/21 07:27:25;;;;;;;3.00;2.07;;;;;;;23.52;45.09;98362.63;5063727;28;20660;-31
2022/09/21 07:29:51;;;;;;;2.30;2.03;;;;;;;23.51;45.18;98367.69;5062740;28;20679;-31
2022/09/21 07:32:18;;;;;;;2.60;1.90;;;;;;;23.50;45.42;98365.97;5068303;28;20687;-31
2022/09/21 07:34:45;;;;;;;3.50;2.37;;;;;;;23.52;45.23;98362.63;5055776;28;20565;-31
2022/09/21 07:37:12;;;;;;;2.17;1.97;;;;;;;23.46;45.28;98352.16;5061249;28;20726;-31
2022/09/21 07:39:38;;;;;;;3.67;1.80;;;;;;;23.53;45.50;98366.94;5060175;28;20204;-31
2022/09/21 07:42:05;;;;;;;2.00;1.80;;;;;;;23.53;45.62;98369.50;5063504;28;20204;-31
2022/09/21 07:44:33;;;;;;;2.30;1.93;;;;;;;23.52;45.75;98365.19;5071934;28;20211;-31
2022/09/21 07:47:01;;;;;;;1.80;1.70;;;;;;;23.55;45.77;98378.13;5066537;28;20211;-31
2022/09/21 07:49:27;;;;;;;2.00;1.90;;;;;;;23.51;45.91;98373.72;5065186;28;20604;-31
2022/09/21 07:51:54;;;;;;;2.10;1.90;;;;;;;23.55;45.84;98367.84;5070220;28;20662;-31
2022/09/21 07:54:22;;;;;;;1.87;1.70;;;;;;;23.56;46.09;98376.44;5068563;28;20235;-31
2022/09/21 07:59:34;;;;;;;1.70;1.60;;;;;;;23.38;46.00;98340.72;5069587;28;20203;-31
2022/09/21 08:02:00;;;;;;;2.50;2.00;;;;;;;23.58;45.96;98385.03;5062557;28;20208;-31
2022/09/21 08:04:27;;;;;;;2.87;1.80;;;;;;;23.52;46.08;98372.88;5063640;28;20266;-31
2022/09/21 08:06:53;;;;;;;2.80;1.87;;;;;;;23.59;46.04;98381.69;5062523;28;20204;-31
2022/09/21 08:09:20;;;;;;;2.00;1.90;;;;;;;23.58;45.79;98373.09;5066708;28;20201;-31
2022/09/21 08:11:46;;;;;;;2.87;1.83;;;;;;;23.54;46.31;98366.13;5059076;28;20208;-31
2022/09/21 08:14:18;;;;;;;1.83;1.73;;;;;;;23.60;45.93;98376.59;5069036;28;20231;-31
2022/09/21 08:16:51;;;;;;;4.53;1.80;;;;;;;23.60;45.82;98375.72;5065667;28;20246;-31
2022/09/21 08:19:19;;;;;;;2.17;1.87;;;;;;;23.52;46.03;98365.19;5068066;28;20197;-31
2022/09/21 08:21:50;;;;;;;1.90;1.70;;;;;;;23.61;46.19;98380.03;5069688;28;20242;-31
2022/09/21 08:24:25;;;;;;;1.70;1.60;;;;;;;23.62;45.85;98386.91;5058273;28;20220;-31
2022/09/21 08:26:52;;;;;;;2.17;1.70;;;;;;;23.63;46.05;98380.94;5068013;28;20201;-31
2022/09/21 08:29:18;;;;;;;1.77;1.67;;;;;;;23.59;46.00;98376.53;5063915;28;20211;-31
2022/09/21 08:31:45;;;;;;;1.90;1.80;;;;;;;23.64;46.29;98386.16;5058683;28;20200;-31
2022/09/21 08:34:13;;;;;;;2.00;1.80;;;;;;;23.64;46.25;98381.00;5068877;28;20691;-31
2022/09/21 08:36:39;;;;;;;2.03;1.70;;;;;;;23.63;46.14;98388.66;5044528;28;20192;-31
2022/09/21 08:39:07;;;;;;;2.50;1.93;;;;;;;23.60;46.13;98375.72;5063953;28;20250;-31
2022/09/21 08:41:39;;;;;;;4.40;1.80;;;;;;;23.65;46.08;98384.47;5068195;28;20207;-31
2022/09/21 08:44:13;;;;;;;2.03;1.73;;;;;;;23.66;46.13;98387.06;5069113;28;20231;-31
2022/09/21 08:46:39;;;;;;;1.83;1.73;;;;;;;23.55;46.10;98369.53;5044638;28;20228;-31
2022/09/21 08:49:20;;;;;;;1.67;1.50;;;;;;;23.66;46.28;98383.63;5035319;28;20196;-31
2022/09/21 08:51:57;;;;;;;2.70;1.87;;;;;;;23.61;46.37;98375.78;5066531;28;20561;-31
2022/09/21 08:54:27;;;;;;;2.10;1.90;;;;;;;23.67;46.36;98386.25;5032590;28;20691;-31
2022/09/21 08:56:54;;;;;;;2.50;2.03;;;;;;;23.65;46.67;98377.63;5046485;28;20207;-31
2022/09/21 08:59:33;;;;;;;1.83;1.70;;;;;;;23.67;46.75;98380.22;5036064;28;20200;-31
2022/09/21 09:02:37;;;;;;;1.60;1.50;;;;;;;23.67;47.11;98381.13;5064451;28;20200;-31
2022/09/21 09:05:25;;;;;;;1.60;1.50;;;;;;;23.67;47.96;98354.56;5062363;28;20211;-31
2022/09/21 09:08:18;;;;;;;2.63;2.33;;;;;;;23.65;47.26;98379.31;5063980;28;20278;-31
2022/09/21 09:11:08;;;;;;;5.47;3.13;;;;;;;23.62;47.14;98374.09;5047196;28;20192;-31
2022/09/21 09:14:00;;;;;;;8.93;3.57;;;;;;;23.66;47.09;98378.50;5046861;28;20230;-31
2022/09/21 09:17:05;;;;;;;10.57;3.87;;;;;;;23.66;46.79;98374.25;5067990;28;20196;-31
2022/09/21 09:19:42;;;;;;;12.53;5.20;;;;;;;23.67;47.08;98370.84;5048107;28;20199;-31
2022/09/21 09:22:10;;;;;;;13.57;4.50;;;;;;;23.68;47.00;98372.59;5062760;28;20582;-31
2022/09/21 09:24:48;;;;;;;10.70;4.87;;;;;;;23.62;47.10;98356.97;5045896;28;20586;-31
2022/09/21 09:27:28;;;;;;;14.20;5.03;;;;;;;23.61;46.98;98355.25;5057921;28;20577;-31
2022/09/21 09:30:03;;;;;;;16.43;5.83;;;;;;;23.70;46.85;98362.38;5059159;28;20462;-31
2022/09/21 09:32:54;;;;;;;19.03;6.40;;;;;;;23.69;47.30;98364.09;5060094;28;20207;-31
2022/09/21 09:35:23;;;;;;;15.83;6.47;;;;;;;23.51;46.92;98326.66;5054856;28;20204;-31
2022/09/21 09:37:51;;;;;;;17.43;6.70;;;;;;;23.71;46.83;98361.56;5058692;28;20288;-31
2022/09/21 09:40:23;;;;;;;17.17;6.50;;;;;;;23.70;46.96;98352.97;5037238;28;20562;-31
2022/09/21 09:42:55;;;;;;;16.40;6.37;;;;;;;23.71;46.88;98357.28;5066010;28;20265;-31
2022/09/21 09:45:53;;;;;;;18.80;6.47;;;;;;;23.72;47.15;98351.34;5025254;28;20203;-31
2022/09/21 09:48:25;;;;;;;20.17;6.73;;;;;;;23.72;46.75;98356.50;5037163;28;20209;-31
2022/09/21 09:50:51;;;;;;;16.10;6.40;;;;;;;23.73;46.90;98347.06;5050577;28;20201;-31
2022/09/21 09:53:20;;;;;;;14.60;6.23;;;;;;;23.73;47.21;98349.63;5038814;28;20216;-31
2022/09/21 09:55:51;;;;;;;20.90;7.33;;;;;;;23.68;47.08;98336.66;5039811;28;20197;-31
2022/09/21 09:58:19;;;;;;;18.10;6.87;;;;;;;23.72;47.04;98338.53;5053294;28;20212;-31
2022/09/21 10:00:49;;;;;;;19.53;7.17;;;;;;;23.67;47.06;98328.91;5065400;28;20209;-31
2022/09/21 10:03:18;;;;;;;15.50;6.07;;;;;;;23.73;46.99;98332.56;5040264;28;20227;-31
2022/09/21 10:05:44;;;;;;;20.77;7.10;;;;;;;23.73;47.06;98327.41;5047552;28;20201;-31
2022/09/21 10:08:27;;;;;;;19.93;6.97;;;;;;;23.74;47.19;98336.00;5064705;28;20212;-31
2022/09/21 10:10:53;;;;;;;19.03;7.17;;;;;;;23.74;47.13;98325.75;5064496;28;20290;-31
2022/09/21 10:13:29;;;;;;;24.77;9.13;;;;;;;23.70;47.10;98318.72;5054175;28;20311;-31
2022/09/21 10:16:05;;;;;;;23.20;7.90;;;;;;;23.75;47.30;98323.22;5051859;28;20576;-31
2022/09/21 10:18:37;;;;;;;29.63;10.30;;;;;;;23.63;47.15;98309.97;5051743;28;20193;-31
2022/09/21 10:21:06;;;;;;;31.00;10.60;;;;;;;23.72;47.19;98323.13;5044099;28;20213;-31
2022/09/21 10:23:32;;;;;;;30.57;11.13;;;;;;;23.75;47.18;98328.34;5035114;28;20706;-31
2022/09/21 10:26:02;;;;;;;29.53;10.80;;;;;;;23.75;47.15;98314.63;5067794;28;20196;-31
2022/09/21 10:28:28;;;;;;;33.60;11.00;;;;;;;23.76;47.37;98321.50;5044760;28;20628;-31
2022/09/21 10:31:20;;;;;;;33.97;11.47;;;;;;;23.76;47.22;98313.81;5072546;28;20196;-31
2022/09/21 10:34:12;;;;;;;34.53;12.43;;;;;;;23.76;47.12;98308.66;5043355;28;20216;-31
2022/09/21 10:36:39;;;;;;;35.67;11.73;;;;;;;23.76;47.34;98314.69;5061962;28;20610;-31
2022/09/21 10:39:16;;;;;;;31.73;12.37;;;;;;;23.76;47.27;98312.13;5046808;28;20197;-31
2022/09/21 10:41:46;;;;;;;33.90;11.93;;;;;;;23.76;47.17;98312.13;5071561;28;20191;-31
2022/09/21 10:44:18;;;;;;;33.83;12.13;;;;;;;23.72;47.28;98306.84;5068508;28;20216;-31
2022/09/21 10:46:45;;;;;;;33.27;12.23;;;;;;;23.76;47.40;98303.53;5032408;28;20205;-31
2022/09/21 10:49:16;;;;;;;36.03;13.20;;;;;;;23.76;47.38;98303.53;5053339;28;20648;-31
2022/09/21 10:51:43;;;;;;;30.57;11.43;;;;;;;23.72;47.53;98292.31;5069879;28;20207;-31
2022/09/21 10:54:10;;;;;;;34.83;11.93;;;;;;;23.73;47.87;98290.59;5039461;28;20726;-31
2022/09/21 10:56:48;;;;;;;29.30;11.50;;;;;;;23.76;47.42;98290.69;5043459;28;20219;-31
2022/09/21 10:59:18;;;;;;;29.90;11.17;;;;;;;23.76;47.68;98296.72;5051368;28;20204;-31
2022/09/21 11:01:45;;;;;;;32.57;11.67;;;;;;;23.77;47.68;98295.03;5069897;28;20200;-31
2022/09/21 11:04:38;;;;;;;30.43;11.87;;;;;;;23.76;47.60;98291.59;5063928;28;20630;-31
2022/09/21 11:07:11;;;;;;;29.00;10.63;;;;;;;23.76;47.87;98299.28;5068050;28;20205;-31
2022/09/21 11:10:22;;;;;;;26.23;11.23;;;;;;;23.76;47.79;98294.16;5068440;28;20203;-31
2022/09/21 11:12:51;;;;;;;28.23;9.87;;;;;;;23.76;47.75;98301.84;4970705;28;20226;-31
2022/09/21 11:15:58;;;;;;;26.80;10.37;;;;;;;23.77;47.91;98295.03;4968939;28;20219;-31
2022/09/21 11:18:49;;;;;;;26.63;10.37;;;;;;;23.77;47.61;98295.03;4958120;28;20203;-31
2022/09/21 11:21:37;;;;;;;27.63;10.77;;;;;;;23.76;47.79;98291.59;4971519;28;20617;-31
2022/09/21 11:24:09;;;;;;;27.43;9.80;;;;;;;23.75;47.72;98287.28;5045588;28;20216;-31
2022/09/21 11:26:43;;;;;;;27.43;10.50;;;;;;;23.76;47.62;98280.44;5050576;28;20203;-31
2022/09/21 11:29:14;;;;;;;23.47;9.33;;;;;;;23.76;47.59;98286.44;5047556;28;20272;-31
2022/09/21 11:32:05;;;;;;;21.60;9.30;;;;;;;23.76;47.77;98283.88;5049836;28;20250;-31
2022/09/21 11:34:47;;;;;;;23.20;9.60;;;;;;;23.76;47.60;98283.00;5071602;28;20216;-31
2022/09/21 11:37:55;;;;;;;24.00;9.53;;;;;;;23.74;47.84;98277.81;5058654;28;20208;-31
2022/09/21 11:40:26;;;;;;;21.40;9.43;;;;;;;23.75;47.93;98279.59;5048899;28;20200;-31
2022/09/21 11:43:19;;;;;;;19.57;8.17;;;;;;;23.76;47.89;98273.63;5049603;28;20315;-31
2022/09/21 11:45:56;;;;;;;22.03;9.27;;;;;;;23.76;47.70;98272.72;5049965;28;20751;-31
2022/09/21 11:48:43;;;;;;;21.00;8.60;;;;;;;23.76;47.69;98281.31;5044249;28;20602;-31
2022/09/21 11:51:18;;;;;;;21.73;8.47;;;;;;;23.76;47.61;98277.88;5070850;28;20203;-31
2022/09/21 11:53:48;;;;;;;24.10;9.53;;;;;;;23.75;47.76;98266.75;5063668;28;20223;-31
2022/09/21 11:56:30;;;;;;;21.97;9.30;;;;;;;23.75;47.52;98269.31;5063190;28;20204;-31
2022/09/21 11:59:09;;;;;;;22.90;9.00;;;;;;;23.75;47.70;98269.31;5048032;28;20203;-31